West Hyattsville, Maryland
Current Conditions -  °F | °C
As of 12:10 PM on Thursday 27 Nov 2014 (Local Time) from KCGS Reporting Station
Broken Clouds Broken Clouds  
Wind Chill: 38°   Ceiling: 7000
Heat Index: 43°   Visibility: 10mi
Dew Point: 32°   Wind: 8mph
Humidity: 66%   Direction: 320°NW
Pressure: 30.04"   Gusts: NA
Location:  38.9558°N, 76.9456°W
Report Text: KCGS 271710Z AUTO 32007KT 10SM SCT030 SCT036 BKN070 06/00 A3004 RMK AO1
Loading
Personal Weather Stations






























Interactive Weather Map New forecast layout! Learn more

10-Day Weather Forecast

Advertisements
Track Severe Weather on mobile